createdAt,value
2023-03-07T00:04:45.885Z,9.37
2023-03-07T00:09:49.958Z,10.93
2023-03-07T00:14:52.694Z,11.50
2023-03-07T00:19:55.398Z,11.20
2023-03-07T00:24:59.554Z,9.43
2023-03-07T00:30:02.400Z,10.53
2023-03-07T00:35:05.550Z,9.63
2023-03-07T00:40:11.593Z,9.77
2023-03-07T00:45:14.504Z,10.53
2023-03-07T00:50:17.463Z,11.10
2023-03-07T00:55:21.923Z,10.03
2023-03-07T01:00:24.821Z,10.97
2023-03-07T01:05:27.566Z,10.83
2023-03-07T01:10:33.252Z,10.07
2023-03-07T01:15:36.128Z,10.73
2023-03-07T01:20:39.944Z,11.33
2023-03-07T01:25:44.576Z,13.10
2023-03-07T01:30:47.401Z,11.00
2023-03-07T01:35:50.595Z,12.30
2023-03-07T01:40:54.980Z,9.90
2023-03-07T01:46:42.758Z,10.63
2023-03-07T01:51:49.352Z,10.23
2023-03-07T01:56:54.217Z,11.10
2023-03-07T02:01:59.004Z,12.17
2023-03-07T02:07:02.545Z,11.30
2023-03-07T02:12:07.971Z,10.50
2023-03-07T02:17:10.901Z,10.83
2023-03-07T02:22:16.991Z,13.43
2023-03-07T02:27:21.264Z,13.47
2023-03-07T02:32:24.265Z,10.80
2023-03-07T02:37:30.194Z,12.50
2023-03-07T02:42:37.319Z,9.70
2023-03-07T02:47:44.470Z,13.13
2023-03-07T02:52:49.947Z,12.13
2023-03-07T02:57:54.734Z,10.63
2023-03-07T03:02:57.546Z,12.83
2023-03-07T03:08:00.340Z,10.57
2023-03-07T03:13:04.872Z,11.57
2023-03-07T03:18:07.909Z,14.13
2023-03-07T03:23:10.756Z,13.40
2023-03-07T03:28:15.085Z,10.07
2023-03-07T03:33:17.900Z,11.37
2023-03-07T03:38:22.391Z,9.10
2023-03-07T03:43:27.252Z,12.07
2023-03-07T03:48:30.428Z,11.40
2023-03-07T03:53:34.217Z,12.17
2023-03-07T03:58:39.089Z,12.93
2023-03-07T04:03:43.506Z,9.23
2023-03-07T04:08:47.384Z,11.43
2023-03-07T04:13:52.102Z,9.53
2023-03-07T04:18:56.370Z,9.30
2023-03-07T04:23:59.377Z,12.23
2023-03-07T04:29:07.124Z,11.03
2023-03-07T04:34:15.730Z,10.97
2023-03-07T04:39:18.522Z,10.87
2023-03-07T04:44:23.391Z,9.57
2023-03-07T04:49:26.621Z,10.97
2023-03-07T04:54:30.528Z,9.40
2023-03-07T04:59:38.994Z,11.73
2023-03-07T05:04:42.092Z,10.73
2023-03-07T05:09:45.164Z,12.40
2023-03-07T05:14:49.630Z,9.87
2023-03-07T05:19:52.438Z,10.60
2023-03-07T05:24:55.516Z,10.97
2023-03-07T05:29:59.748Z,11.43
2023-03-07T05:35:02.554Z,7.43
2023-03-07T05:40:10.990Z,8.77
2023-03-07T05:45:18.546Z,8.80
2023-03-07T05:50:21.540Z,8.00
2023-03-07T05:55:25.143Z,7.23
2023-03-07T06:00:30.016Z,9.27
2023-03-07T06:05:36.081Z,6.70
2023-03-07T06:10:40.778Z,6.43
2023-03-07T06:15:49.903Z,7.63
2023-03-07T06:20:58.716Z,6.73
2023-03-07T06:26:03.967Z,6.53
2023-03-07T06:31:11.646Z,5.30
2023-03-07T06:36:16.919Z,6.40
2023-03-07T06:41:23.268Z,6.90
2023-03-07T06:46:29.435Z,5.67
2023-03-07T06:51:33.047Z,5.00
2023-03-07T06:56:36.450Z,5.20
2023-03-07T07:01:41.140Z,4.83
2023-03-07T07:06:44.829Z,5.57
2023-03-07T07:11:47.947Z,5.30
2023-03-07T07:16:52.286Z,5.20
2023-03-07T07:21:55.608Z,6.73
2023-03-07T07:26:58.493Z,4.80
2023-03-07T07:32:02.889Z,3.83
2023-03-07T07:37:06.035Z,4.50
2023-03-07T07:42:09.347Z,5.27
2023-03-07T07:47:24.164Z,5.30
2023-03-07T07:52:27.033Z,6.10
2023-03-07T07:57:29.863Z,5.20
2023-03-07T08:02:38.243Z,6.37
2023-03-07T08:07:41.040Z,5.10
2023-03-07T08:12:44.462Z,5.67
2023-03-07T08:17:48.985Z,4.20
2023-03-07T08:22:52.824Z,3.97
2023-03-07T08:27:56.001Z,4.37
2023-03-07T08:33:00.267Z,4.37
2023-03-07T08:38:03.075Z,3.77
2023-03-07T08:43:05.957Z,3.70
2023-03-07T08:48:10.901Z,3.93
2023-03-07T08:53:14.620Z,3.47
2023-03-07T08:58:17.392Z,3.73
2023-03-07T09:03:21.446Z,3.53
2023-03-07T09:08:24.417Z,3.90
2023-03-07T09:13:27.361Z,4.10
2023-03-07T09:18:31.775Z,2.70
2023-03-07T09:23:34.791Z,3.03
2023-03-07T09:28:37.557Z,3.07
2023-03-07T09:33:42.229Z,4.17
2023-03-07T09:38:45.371Z,3.33
2023-03-07T09:43:53.199Z,3.70
2023-03-07T09:49:26.921Z,3.53
2023-03-07T09:54:34.387Z,4.03
2023-03-07T09:59:39.716Z,4.27
2023-03-07T10:04:49.287Z,3.90
2023-03-07T10:09:52.791Z,4.50
2023-03-07T10:15:06.468Z,5.70
2023-03-07T10:20:18.342Z,4.30
2023-03-07T10:25:26.128Z,4.87
2023-03-07T10:30:32.295Z,4.37
2023-03-07T10:35:42.031Z,7.60
2023-03-07T10:40:49.715Z,5.50
2023-03-07T10:45:55.939Z,4.83
2023-03-07T10:51:06.714Z,4.80
2023-03-07T10:56:12.359Z,5.80
2023-03-07T11:01:19.659Z,3.90
2023-03-07T11:06:34.513Z,4.43
2023-03-07T11:11:37.973Z,6.63
2023-03-07T11:16:42.597Z,5.63
2023-03-07T11:21:53.831Z,5.07
2023-03-07T11:26:57.663Z,3.97
2023-03-07T11:32:05.987Z,3.50
2023-03-07T11:37:23.758Z,4.90
2023-03-07T11:42:30.981Z,3.70
2023-03-07T11:47:39.723Z,4.15
2023-03-07T11:53:16.475Z,4.27
2023-03-07T11:58:37.336Z,5.30
2023-03-07T12:04:22.734Z,3.65
2023-03-07T12:09:39.864Z,2.67
2023-03-07T12:14:49.601Z,4.32
2023-03-07T12:20:06.359Z,6.05
2023-03-07T12:25:24.672Z,3.88
2023-03-07T12:30:34.528Z,4.22
2023-03-07T12:35:43.489Z,6.78
2023-03-07T12:40:50.700Z,4.82
2023-03-07T12:45:58.800Z,3.65
2023-03-07T12:51:06.914Z,4.20
2023-03-07T12:56:15.264Z,4.10
2023-03-07T13:01:20.574Z,4.85
2023-03-07T13:06:24.193Z,5.68
2023-03-07T13:11:29.879Z,3.92
2023-03-07T13:16:41.419Z,3.83
2023-03-07T13:21:44.243Z,5.97
2023-03-07T13:26:55.037Z,5.20
2023-03-07T13:31:57.917Z,6.30
2023-03-07T13:37:01.369Z,3.95
2023-03-07T13:42:05.792Z,4.90
2023-03-07T13:47:41.828Z,5.10
2023-03-07T13:52:46.035Z,3.60
2023-03-07T13:57:50.232Z,5.72
2023-03-07T14:02:54.438Z,4.15
2023-03-07T14:07:58.547Z,5.28
2023-03-07T14:13:27.624Z,4.80
2023-03-07T14:18:40.359Z,3.85
2023-03-07T14:23:57.383Z,3.28
2023-03-07T14:29:03.589Z,3.22
2023-03-07T14:34:17.489Z,3.55
2023-03-07T14:39:20.998Z,3.80
2023-03-07T14:44:46.379Z,4.63
2023-03-07T14:49:55.297Z,4.33
2023-03-07T14:55:01.293Z,4.50
2023-03-07T15:00:25.094Z,3.40
2023-03-07T15:05:29.646Z,4.30
2023-03-07T15:10:35.880Z,2.27
2023-03-07T15:15:44.815Z,2.50
2023-03-07T15:20:47.824Z,2.07
2023-03-07T15:25:58.155Z,1.37
2023-03-07T15:31:03.113Z,1.20
2023-03-07T15:36:29.970Z,1.27
2023-03-07T15:41:35.772Z,1.00
2023-03-07T15:46:42.547Z,1.00
2023-03-07T15:51:45.495Z,0.90
2023-03-07T15:56:54.984Z,3.40
2023-03-07T16:01:59.504Z,2.97
2023-03-07T16:07:02.425Z,2.70
2023-03-07T16:12:12.258Z,2.83
2023-03-07T16:17:20.899Z,2.17
2023-03-07T16:22:23.673Z,1.90
2023-03-07T16:27:26.458Z,2.83
2023-03-07T16:32:30.656Z,1.80
2023-03-07T16:37:33.485Z,1.10
2023-03-07T16:42:36.393Z,0.97
2023-03-07T16:47:40.551Z,1.10
2023-03-07T16:52:44.187Z,1.00
2023-03-07T16:57:49.372Z,2.67
2023-03-07T17:02:54.452Z,1.67
2023-03-07T17:07:58.624Z,2.30
2023-03-07T17:13:02.358Z,1.10
2023-03-07T17:18:06.555Z,1.73
2023-03-07T17:23:09.428Z,1.40
2023-03-07T17:28:13.950Z,1.37
2023-03-07T17:33:18.037Z,1.10
2023-03-07T17:38:20.831Z,1.90
2023-03-07T17:43:23.990Z,1.10
2023-03-07T17:48:28.314Z,2.50
2023-03-07T17:53:31.134Z,3.13
2023-03-07T17:58:33.909Z,2.53
2023-03-07T18:03:38.602Z,3.70
2023-03-07T18:08:41.412Z,2.77
2023-03-07T18:13:44.289Z,2.73
2023-03-07T18:18:58.818Z,2.20
2023-03-07T18:24:03.368Z,3.37
2023-03-07T18:29:06.218Z,7.43
2023-03-07T18:34:10.559Z,4.70
2023-03-07T18:39:13.352Z,3.83
2023-03-07T18:44:18.378Z,4.13
2023-03-07T18:49:22.559Z,3.73
2023-03-07T18:54:25.246Z,3.13
2023-03-07T18:59:28.000Z,3.83
2023-03-07T19:04:33.224Z,3.90
2023-03-07T19:09:35.934Z,4.07
2023-03-07T19:14:38.877Z,4.17
2023-03-07T19:19:43.056Z,4.10
2023-03-07T19:24:47.531Z,5.27
2023-03-07T19:29:50.417Z,4.67
2023-03-07T19:34:55.456Z,3.90
2023-03-07T19:39:58.325Z,4.97
2023-03-07T19:45:01.235Z,3.37
2023-03-07T19:50:06.003Z,3.83
2023-03-07T19:55:09.696Z,3.47
2023-03-07T20:00:13.854Z,3.87
2023-03-07T20:05:18.524Z,2.70
2023-03-07T20:10:21.533Z,3.83
2023-03-07T20:15:24.329Z,3.03
2023-03-07T20:20:28.711Z,2.87
2023-03-07T20:25:32.210Z,3.30
2023-03-07T20:30:36.424Z,2.67
2023-03-07T20:35:40.531Z,3.50
2023-03-07T20:40:43.323Z,2.97
2023-03-07T20:45:46.074Z,4.33
2023-03-07T20:50:50.313Z,3.40
2023-03-07T20:55:53.265Z,3.57
2023-03-07T21:00:56.077Z,2.27
2023-03-07T21:06:01.725Z,2.63
2023-03-07T21:11:06.321Z,2.07
2023-03-07T21:16:11.007Z,1.20
2023-03-07T21:21:16.207Z,1.97
2023-03-07T21:26:21.002Z,1.40
2023-03-07T21:31:25.609Z,1.97
2023-03-07T21:36:31.286Z,1.90
2023-03-07T21:41:34.386Z,3.33
2023-03-07T21:46:37.493Z,1.83
2023-03-07T21:51:41.810Z,1.63
2023-03-07T21:56:44.518Z,0.83
2023-03-07T22:01:47.241Z,1.23
2023-03-07T22:06:53.129Z,1.73
2023-03-07T22:11:56.158Z,1.87
2023-03-07T22:16:58.967Z,0.77
2023-03-07T22:22:03.173Z,2.53
2023-03-07T22:27:07.086Z,1.20
2023-03-07T22:32:09.931Z,1.33
2023-03-07T22:37:14.346Z,1.13
2023-03-07T22:42:17.136Z,1.40
2023-03-07T22:47:19.833Z,1.90
2023-03-07T22:52:24.260Z,1.17
2023-03-07T22:57:27.174Z,1.00
2023-03-07T23:02:29.907Z,0.90
2023-03-07T23:07:34.052Z,1.20
2023-03-07T23:12:36.817Z,2.50
2023-03-07T23:17:39.616Z,1.30
2023-03-07T23:22:43.775Z,1.67
2023-03-07T23:27:46.660Z,1.70
2023-03-07T23:32:49.398Z,1.60
2023-03-07T23:37:53.437Z,1.67
2023-03-07T23:42:56.345Z,1.70
2023-03-07T23:47:59.267Z,1.80
2023-03-07T23:53:03.350Z,2.67
2023-03-07T23:58:06.085Z,1.70
